createdAt,value
2019-02-04T00:02:11.166Z,13.73
2019-02-04T00:04:40.459Z,15.30
2019-02-04T00:07:11.902Z,19.10
2019-02-04T00:09:41.202Z,15.63
2019-02-04T00:12:10.514Z,14.37
2019-02-04T00:14:39.912Z,14.63
2019-02-04T00:17:12.047Z,16.80
2019-02-04T00:19:41.408Z,14.67
2019-02-04T00:22:11.274Z,18.97
2019-02-04T00:24:40.793Z,16.43
2019-02-04T00:27:10.220Z,13.30
2019-02-04T00:29:39.598Z,21.03
2019-02-04T00:32:09.317Z,16.33
2019-02-04T00:34:38.965Z,15.80
2019-02-04T00:37:11.177Z,16.27
2019-02-04T00:39:40.452Z,17.67
2019-02-04T00:42:10.130Z,16.53
2019-02-04T00:44:39.485Z,16.87
2019-02-04T00:47:12.066Z,16.67
2019-02-04T00:49:42.129Z,19.03
2019-02-04T00:52:11.444Z,18.03
2019-02-04T00:54:41.244Z,17.73
2019-02-04T00:57:10.673Z,19.20
2019-02-04T00:59:39.976Z,23.23
2019-02-04T01:02:11.618Z,17.50
2019-02-04T01:04:40.979Z,19.50
2019-02-04T01:07:10.730Z,23.92
2019-02-04T01:09:40.380Z,15.37
2019-02-04T01:12:09.653Z,16.23
2019-02-04T01:14:38.970Z,17.07
2019-02-04T01:17:11.751Z,11.10
2019-02-04T01:19:41.095Z,12.03
2019-02-04T01:22:10.564Z,13.40
2019-02-04T01:24:40.182Z,13.17
2019-02-04T01:27:09.615Z,19.37
2019-02-04T01:29:38.887Z,7.10
2019-02-04T01:32:08.650Z,13.47
2019-02-04T01:34:37.928Z,14.57
2019-02-04T01:37:08.459Z,12.97
2019-02-04T01:39:37.851Z,15.53
2019-02-04T01:42:07.210Z,14.33
2019-02-04T01:44:37.172Z,8.47
2019-02-04T01:47:14.352Z,12.57
2019-02-04T01:49:38.704Z,12.23
2019-02-04T01:52:08.079Z,11.27
2019-02-04T01:54:37.407Z,10.60
2019-02-04T01:57:09.287Z,9.37
2019-02-04T01:59:38.694Z,11.40
2019-02-04T02:02:08.051Z,10.57
2019-02-04T02:04:37.411Z,13.20
2019-02-04T02:07:10.400Z,9.47
2019-02-04T02:09:39.802Z,12.13
2019-02-04T02:12:09.280Z,9.23
2019-02-04T02:14:38.589Z,6.90
2019-02-04T02:17:07.938Z,13.27
2019-02-04T02:19:37.664Z,8.40
2019-02-04T02:22:07.098Z,14.10
2019-02-04T02:24:36.721Z,13.27
2019-02-04T02:27:06.515Z,13.23
2019-02-04T02:29:35.904Z,13.87
2019-02-04T02:32:05.279Z,9.77
2019-02-04T02:34:34.642Z,13.23
2019-02-04T02:37:04.093Z,11.00
2019-02-04T02:39:33.960Z,9.37
2019-02-04T02:42:03.570Z,10.43
2019-02-04T02:44:33.463Z,14.40
2019-02-04T02:47:03.042Z,10.47
2019-02-04T02:49:32.896Z,11.37
2019-02-04T02:52:02.675Z,16.40
2019-02-04T02:54:32.409Z,11.40
2019-02-04T02:57:01.990Z,12.20
2019-02-04T02:59:31.458Z,15.17
2019-02-04T03:02:01.221Z,11.43
2019-02-04T03:04:30.638Z,9.40
2019-02-04T03:07:00.314Z,10.70
2019-02-04T03:09:32.688Z,7.03
2019-02-04T03:12:02.043Z,8.40
2019-02-04T03:14:31.756Z,12.30
2019-02-04T03:17:01.454Z,16.30
2019-02-04T03:19:31.055Z,13.43
2019-02-04T03:22:00.848Z,8.23
2019-02-04T03:24:33.526Z,9.67
2019-02-04T03:27:02.852Z,8.73
2019-02-04T03:29:32.196Z,8.97
2019-02-04T03:32:03.976Z,12.93
2019-02-04T03:34:34.046Z,10.67
2019-02-04T03:37:03.327Z,10.87
2019-02-04T03:39:32.979Z,7.33
2019-02-04T03:42:02.912Z,10.07
2019-02-04T03:44:32.275Z,9.13
2019-02-04T03:47:02.555Z,14.23
2019-02-04T03:49:31.901Z,8.13
2019-02-04T03:52:01.264Z,15.50
2019-02-04T03:54:32.361Z,11.73
2019-02-04T03:57:02.120Z,12.63
2019-02-04T03:59:31.510Z,5.13
2019-02-04T04:02:05.292Z,10.30
2019-02-04T04:04:34.560Z,6.73
2019-02-04T04:07:04.120Z,7.97
2019-02-04T04:09:34.073Z,9.07
2019-02-04T04:12:03.447Z,15.07
2019-02-04T04:14:33.635Z,12.53
2019-02-04T04:17:03.009Z,12.13
2019-02-04T04:19:32.298Z,10.37
2019-02-04T04:22:04.022Z,8.33
2019-02-04T04:24:33.629Z,7.43
2019-02-04T04:27:05.644Z,7.53
2019-02-04T04:29:35.021Z,8.47
2019-02-04T04:32:04.272Z,6.90
2019-02-04T04:34:33.976Z,8.60
2019-02-04T04:37:03.565Z,8.20
2019-02-04T04:39:33.031Z,10.40
2019-02-04T04:42:02.921Z,14.53
2019-02-04T04:44:32.235Z,7.60
2019-02-04T04:47:01.677Z,6.57
2019-02-04T04:49:31.781Z,10.17
2019-02-04T04:52:01.146Z,10.20
2019-02-04T04:54:34.232Z,8.37
2019-02-04T04:57:03.592Z,9.67
2019-02-04T04:59:33.022Z,7.63
2019-02-04T05:02:02.372Z,11.00
2019-02-04T05:04:31.712Z,11.10
2019-02-04T05:07:00.988Z,9.60
2019-02-04T05:09:30.708Z,9.37
2019-02-04T05:12:00.434Z,8.10
2019-02-04T05:14:34.719Z,5.80
2019-02-04T05:17:04.169Z,8.03
2019-02-04T05:19:33.474Z,10.27
2019-02-04T05:22:05.576Z,8.03
2019-02-04T05:24:38.017Z,8.70
2019-02-04T05:27:08.089Z,9.83
2019-02-04T05:29:37.474Z,8.83
2019-02-04T05:32:07.202Z,11.13
2019-02-04T05:34:36.545Z,13.20
2019-02-04T05:37:06.611Z,11.43
2019-02-04T05:39:36.053Z,11.20
2019-02-04T05:42:08.998Z,7.50
2019-02-04T05:44:38.373Z,9.77
2019-02-04T05:47:07.757Z,10.63
2019-02-04T05:49:40.426Z,8.30
2019-02-04T05:52:11.169Z,8.20
2019-02-04T05:54:40.450Z,10.80
2019-02-04T05:57:09.960Z,9.27
2019-02-04T05:59:39.647Z,7.00
2019-02-04T06:02:09.778Z,10.37
2019-02-04T06:04:39.143Z,9.13
2019-02-04T06:07:08.462Z,13.17
2019-02-04T06:09:38.310Z,14.07
2019-02-04T06:12:07.774Z,8.10
2019-02-04T06:14:37.217Z,12.90
2019-02-04T06:17:08.637Z,13.47
2019-02-04T06:19:37.941Z,14.33
2019-02-04T06:22:07.372Z,13.87
2019-02-04T06:24:36.742Z,10.57
2019-02-04T06:27:06.489Z,11.63
2019-02-04T06:29:35.889Z,14.37
2019-02-04T06:32:06.072Z,11.33
2019-02-04T06:34:44.539Z,11.10
2019-02-04T06:37:14.225Z,10.17
2019-02-04T06:39:43.907Z,9.00
2019-02-04T06:42:13.290Z,11.57
2019-02-04T06:44:42.930Z,6.83
2019-02-04T06:47:12.688Z,13.70
2019-02-04T06:49:42.071Z,8.70
2019-02-04T06:52:11.566Z,11.93
2019-02-04T06:54:40.923Z,9.03
2019-02-04T06:57:10.257Z,10.00
2019-02-04T06:59:39.787Z,9.63
2019-02-04T07:02:09.239Z,11.95
2019-02-04T07:04:38.971Z,10.07
2019-02-04T07:07:08.830Z,9.20
2019-02-04T07:09:40.280Z,7.80
2019-02-04T07:12:10.104Z,7.77
2019-02-04T07:14:50.574Z,12.20
2019-02-04T07:17:19.983Z,10.97
2019-02-04T07:19:49.426Z,8.20
2019-02-04T07:22:20.045Z,11.17
2019-02-04T07:24:50.148Z,10.23
2019-02-04T07:27:22.441Z,8.20
2019-02-04T07:29:51.234Z,10.83
2019-02-04T07:32:20.630Z,14.00
2019-02-04T07:34:50.754Z,11.87
2019-02-04T07:37:20.070Z,7.00
2019-02-04T07:39:49.934Z,8.03
2019-02-04T07:42:19.480Z,11.03
2019-02-04T07:44:49.274Z,6.97
2019-02-04T07:47:18.694Z,11.73
2019-02-04T07:49:47.995Z,8.60
2019-02-04T07:52:17.748Z,11.73
2019-02-04T07:54:47.762Z,11.17
2019-02-04T07:57:17.075Z,15.83
2019-02-04T07:59:46.395Z,9.33
2019-02-04T08:02:17.868Z,13.33
2019-02-04T08:04:47.278Z,9.27
2019-02-04T08:07:17.549Z,9.53
2019-02-04T08:09:46.884Z,9.97
2019-02-04T08:12:16.602Z,10.07
2019-02-04T08:14:46.078Z,10.10
2019-02-04T08:17:15.846Z,10.43
2019-02-04T08:19:47.324Z,13.07
2019-02-04T08:22:16.770Z,8.47
2019-02-04T08:24:46.541Z,10.73
2019-02-04T08:27:16.010Z,7.83
2019-02-04T08:29:46.139Z,10.60
2019-02-04T08:32:15.528Z,10.57
2019-02-04T08:34:45.279Z,11.07
2019-02-04T08:37:15.223Z,12.23
2019-02-04T08:39:44.557Z,10.87
2019-02-04T08:42:14.017Z,10.93
2019-02-04T08:44:43.413Z,11.33
2019-02-04T08:47:22.527Z,9.10
2019-02-04T08:49:44.319Z,9.13
2019-02-04T08:52:13.720Z,9.40
2019-02-04T08:54:43.065Z,6.87
2019-02-04T08:57:12.371Z,9.17
2019-02-04T08:59:43.167Z,8.03
2019-02-04T09:02:12.864Z,11.83
2019-02-04T09:04:42.408Z,8.50
2019-02-04T09:07:13.054Z,8.93
2019-02-04T09:09:42.487Z,6.73
2019-02-04T09:12:11.990Z,5.27
2019-02-04T09:14:41.841Z,7.03
2019-02-04T09:17:11.331Z,7.67
2019-02-04T09:19:40.729Z,6.80
2019-02-04T09:22:10.292Z,4.87
2019-02-04T09:24:39.843Z,9.40
2019-02-04T09:27:09.345Z,9.00
2019-02-04T09:29:41.678Z,8.43
2019-02-04T09:32:11.553Z,6.23
2019-02-04T09:34:42.207Z,8.50
2019-02-04T09:37:14.972Z,10.43
2019-02-04T09:39:46.366Z,7.77
2019-02-04T09:42:15.693Z,9.40
2019-02-04T09:44:48.557Z,8.17
2019-02-04T09:47:17.985Z,8.13
2019-02-04T09:49:55.369Z,6.93
2019-02-04T09:52:24.778Z,8.83
2019-02-04T09:54:54.556Z,6.30
2019-02-04T09:57:23.963Z,7.87
2019-02-04T09:59:56.370Z,11.07
2019-02-04T10:02:27.220Z,5.17
2019-02-04T10:04:57.017Z,13.70
2019-02-04T10:07:26.390Z,7.60
2019-02-04T10:09:59.122Z,6.67
2019-02-04T10:12:28.933Z,8.47
2019-02-04T10:15:01.939Z,12.37
2019-02-04T10:17:31.357Z,9.93
2019-02-04T10:20:00.764Z,8.63
2019-02-04T10:22:30.237Z,7.30
2019-02-04T10:24:59.833Z,13.97
2019-02-04T10:27:30.095Z,9.07
2019-02-04T10:29:59.820Z,12.37
2019-02-04T10:32:29.283Z,6.60
2019-02-04T10:35:01.257Z,9.83
2019-02-04T10:37:30.747Z,6.60
2019-02-04T10:40:00.735Z,6.43
2019-02-04T10:42:30.223Z,16.63
2019-02-04T10:44:59.903Z,9.20
2019-02-04T10:47:29.307Z,7.23
2019-02-04T10:50:01.001Z,12.40
2019-02-04T10:52:30.359Z,7.00
2019-02-04T10:55:00.383Z,8.03
2019-02-04T10:57:40.331Z,8.77
2019-02-04T11:00:00.924Z,7.73
2019-02-04T11:02:30.541Z,6.67
2019-02-04T11:05:01.224Z,11.27
2019-02-04T11:07:30.748Z,8.30
2019-02-04T11:10:00.408Z,6.93
2019-02-04T11:12:29.840Z,9.67
2019-02-04T11:14:59.370Z,6.87
2019-02-04T11:17:28.873Z,9.37
2019-02-04T11:19:59.077Z,11.07
2019-02-04T11:22:28.518Z,8.43
2019-02-04T11:24:57.930Z,11.90
2019-02-04T11:27:29.714Z,8.47
2019-02-04T11:29:59.039Z,13.00
2019-02-04T11:32:28.455Z,10.77
2019-02-04T11:34:58.665Z,17.23
2019-02-04T11:37:28.485Z,11.20
2019-02-04T11:39:58.149Z,12.00
2019-02-04T11:42:27.769Z,7.37
2019-02-04T11:44:57.216Z,11.40
2019-02-04T11:47:29.828Z,8.40
2019-02-04T11:49:59.293Z,11.43
2019-02-04T11:52:28.939Z,9.80
2019-02-04T11:55:02.132Z,11.63
2019-02-04T11:57:31.949Z,11.23
2019-02-04T12:00:02.137Z,10.43
2019-02-04T12:02:34.710Z,12.40
2019-02-04T12:05:02.735Z,9.70
2019-02-04T12:08:13.752Z,12.57
2019-02-04T12:10:49.427Z,13.60
2019-02-04T12:13:19.149Z,13.10
2019-02-04T12:15:48.885Z,10.17
2019-02-04T12:18:18.421Z,14.80
2019-02-04T12:20:48.079Z,13.10
2019-02-04T12:23:17.488Z,16.80
2019-02-04T12:25:46.992Z,13.30
2019-02-04T12:28:16.672Z,18.03
2019-02-04T12:30:46.171Z,11.37
2019-02-04T12:33:15.650Z,11.40
2019-02-04T12:35:47.523Z,17.27
2019-02-04T12:38:17.573Z,15.73
2019-02-04T12:40:47.084Z,14.83
2019-02-04T12:43:16.520Z,15.83
2019-02-04T12:45:46.826Z,12.60
2019-02-04T12:48:17.916Z,15.57
2019-02-04T12:50:47.310Z,10.20
2019-02-04T12:53:16.734Z,10.70
2019-02-04T12:55:46.093Z,10.13
2019-02-04T12:58:15.280Z,12.70
2019-02-04T13:00:44.910Z,16.17
2019-02-04T13:03:14.571Z,11.73
2019-02-04T13:05:46.923Z,10.57
2019-02-04T13:08:16.369Z,10.40
2019-02-04T13:10:46.819Z,11.60
2019-02-04T13:13:18.673Z,14.47
2019-02-04T13:15:47.973Z,10.40
2019-02-04T13:18:17.682Z,12.27
2019-02-04T13:20:46.976Z,12.03
2019-02-04T13:23:16.631Z,8.40
2019-02-04T13:25:45.891Z,13.65
2019-02-04T13:28:22.269Z,13.80
2019-02-04T13:30:51.749Z,10.73
2019-02-04T13:33:21.537Z,10.57
2019-02-04T13:35:50.839Z,13.50
2019-02-04T13:38:20.137Z,12.07
2019-02-04T13:40:49.556Z,11.70
2019-02-04T13:43:18.876Z,12.00
2019-02-04T13:45:48.191Z,15.73
2019-02-04T13:48:17.623Z,12.03
2019-02-04T13:50:47.566Z,14.23
2019-02-04T13:53:16.938Z,10.73
2019-02-04T13:55:46.204Z,11.90
2019-02-04T13:58:15.481Z,14.03
2019-02-04T14:00:44.840Z,12.53
2019-02-04T14:03:14.097Z,10.57
2019-02-04T14:05:43.787Z,13.50
2019-02-04T14:08:13.093Z,12.67
2019-02-04T14:10:46.374Z,12.00
2019-02-04T14:13:15.979Z,14.53
2019-02-04T14:15:45.485Z,14.40
2019-02-04T14:18:15.203Z,13.80
2019-02-04T14:20:44.533Z,14.97
2019-02-04T14:23:14.456Z,11.07
2019-02-04T14:25:43.857Z,14.37
2019-02-04T14:28:14.972Z,11.50
2019-02-04T14:30:44.257Z,10.97
2019-02-04T14:33:13.839Z,13.27
2019-02-04T14:35:43.369Z,12.00
2019-02-04T14:38:15.417Z,12.87
2019-02-04T14:40:45.092Z,13.70
2019-02-04T14:43:24.676Z,14.17
2019-02-04T14:46:41.870Z,11.70
2019-02-04T14:49:47.184Z,13.73
2019-02-04T14:52:31.580Z,12.93
2019-02-04T14:55:55.739Z,16.90
2019-02-04T14:59:05.049Z,15.23
2019-02-04T15:02:27.756Z,14.13
2019-02-04T15:05:30.584Z,11.43
2019-02-04T15:08:43.113Z,13.27
2019-02-04T15:11:55.652Z,13.17
2019-02-04T15:14:51.028Z,13.60
2019-02-04T15:17:45.967Z,12.03
2019-02-04T15:20:45.223Z,11.23
2019-02-04T15:23:55.422Z,13.40
2019-02-04T15:27:03.649Z,12.93
2019-02-04T15:30:03.495Z,11.60
2019-02-04T15:33:16.165Z,19.57
2019-02-04T15:36:31.316Z,12.07
2019-02-04T15:39:32.189Z,14.53
2019-02-04T15:42:44.496Z,15.17
2019-02-04T15:45:57.401Z,15.60
2019-02-04T15:48:34.769Z,15.03
2019-02-04T15:51:28.517Z,14.23
2019-02-04T15:53:59.586Z,15.97
2019-02-04T15:56:28.992Z,13.40
2019-02-04T15:58:58.459Z,16.10
2019-02-04T16:01:27.948Z,16.10
2019-02-04T16:04:16.451Z,13.33
2019-02-04T16:06:45.861Z,16.23
2019-02-04T16:09:15.520Z,13.93
2019-02-04T16:11:44.809Z,15.23
2019-02-04T16:14:14.297Z,14.80
2019-02-04T16:16:43.625Z,17.87
2019-02-04T16:19:15.478Z,23.37
2019-02-04T16:21:44.756Z,15.87
2019-02-04T16:24:14.416Z,15.60
2019-02-04T16:26:43.712Z,17.87
2019-02-04T16:29:15.287Z,17.47
2019-02-04T16:31:44.411Z,15.07
2019-02-04T16:34:13.946Z,21.37
2019-02-04T16:36:43.274Z,16.50
2019-02-04T16:39:12.763Z,16.13
2019-02-04T16:41:42.376Z,18.43
2019-02-04T16:44:11.824Z,16.67
2019-02-04T16:46:44.004Z,18.43
2019-02-04T16:49:14.610Z,14.73
2019-02-04T16:51:43.945Z,18.70
2019-02-04T16:54:13.225Z,23.35
2019-02-04T16:56:42.597Z,19.57
2019-02-04T16:59:11.959Z,22.83
2019-02-04T17:01:41.538Z,16.70
2019-02-04T17:04:10.859Z,17.10
2019-02-04T17:06:42.542Z,17.07
2019-02-04T17:09:14.528Z,19.37
2019-02-04T17:11:43.814Z,19.23
2019-02-04T17:14:13.093Z,25.20
2019-02-04T17:16:42.447Z,19.27
2019-02-04T17:19:11.856Z,17.83
2019-02-04T17:21:41.180Z,23.67
2019-02-04T17:24:10.754Z,23.27
2019-02-04T17:26:43.064Z,20.60
2019-02-04T17:29:12.978Z,22.97
2019-02-04T17:31:42.422Z,19.67
2019-02-04T17:34:11.862Z,20.83
2019-02-04T17:36:43.922Z,18.03
2019-02-04T17:39:13.526Z,21.77
2019-02-04T17:41:42.868Z,22.07
2019-02-04T17:44:12.591Z,18.47
2019-02-04T17:46:44.910Z,23.70
2019-02-04T17:49:16.015Z,24.83
2019-02-04T17:51:45.388Z,20.20
2019-02-04T17:54:14.833Z,24.50
2019-02-04T17:56:46.635Z,20.70
2019-02-04T17:59:17.892Z,21.67
2019-02-04T18:01:47.621Z,26.03
2019-02-04T18:04:19.508Z,26.20
2019-02-04T18:06:49.928Z,25.07
2019-02-04T18:09:19.440Z,26.53
2019-02-04T18:11:48.803Z,25.27
2019-02-04T18:14:18.292Z,22.83
2019-02-04T18:16:47.609Z,27.57
2019-02-04T18:19:18.472Z,27.47
2019-02-04T18:21:47.974Z,24.70
2019-02-04T18:24:17.787Z,24.80
2019-02-04T18:26:47.178Z,23.60
2019-02-04T18:29:16.542Z,24.23
2019-02-04T18:31:45.963Z,23.03
2019-02-04T18:34:17.674Z,22.83
2019-02-04T18:36:48.234Z,22.97
2019-02-04T18:39:22.053Z,24.03
2019-02-04T18:41:56.150Z,27.07
2019-02-04T18:44:25.490Z,28.00
2019-02-04T18:46:56.434Z,27.23
2019-02-04T18:49:27.195Z,28.57
2019-02-04T18:51:58.074Z,29.90
2019-02-04T18:54:30.278Z,32.40
2019-02-04T18:57:02.842Z,33.07
2019-02-04T18:59:34.606Z,28.20
2019-02-04T19:02:06.803Z,27.63
2019-02-04T19:04:40.778Z,31.17
2019-02-04T19:07:10.312Z,29.50
2019-02-04T19:09:42.598Z,28.20
2019-02-04T19:12:13.939Z,28.03
2019-02-04T19:14:46.012Z,29.83
2019-02-04T19:17:18.528Z,30.57
2019-02-04T19:19:49.470Z,31.70
2019-02-04T19:22:22.004Z,30.70
2019-02-04T19:24:55.914Z,31.80
2019-02-04T19:27:27.993Z,30.10
2019-02-04T19:29:57.828Z,35.47
2019-02-04T19:32:30.570Z,30.17
2019-02-04T19:34:59.864Z,32.53
2019-02-04T19:37:32.860Z,30.90
2019-02-04T19:40:04.357Z,37.57
2019-02-04T19:42:37.710Z,32.33
2019-02-04T19:45:15.744Z,30.00
2019-02-04T19:47:47.615Z,33.60
2019-02-04T19:50:29.831Z,32.80
2019-02-04T19:53:06.804Z,32.00
2019-02-04T19:55:36.668Z,37.77
2019-02-04T19:58:06.641Z,35.80
2019-02-04T20:00:36.238Z,35.63
2019-02-04T20:03:16.302Z,36.37
2019-02-04T20:06:05.026Z,39.83
2019-02-04T20:08:39.211Z,38.93
2019-02-04T20:11:09.031Z,30.97
2019-02-04T20:13:39.928Z,34.57
2019-02-04T20:16:47.464Z,42.83
2019-02-04T20:19:26.483Z,34.27
2019-02-04T20:21:58.130Z,34.63
2019-02-04T20:24:33.403Z,38.10
2019-02-04T20:27:00.986Z,37.97
2019-02-04T20:29:30.301Z,36.77
2019-02-04T20:32:01.295Z,39.77
2019-02-04T20:34:30.717Z,39.03
2019-02-04T20:37:00.374Z,36.30
2019-02-04T20:39:29.781Z,39.03
2019-02-04T20:41:59.113Z,38.67
2019-02-04T20:44:28.485Z,39.97
2019-02-04T20:46:57.871Z,48.23
2019-02-04T20:49:27.645Z,35.27
2019-02-04T20:51:57.043Z,40.50
2019-02-04T20:54:26.424Z,42.70
2019-02-04T20:56:55.797Z,41.13
2019-02-04T20:59:25.236Z,43.40
2019-02-04T21:01:54.613Z,42.00
2019-02-04T21:04:24.001Z,43.13
2019-02-04T21:06:56.561Z,49.73
2019-02-04T21:09:26.136Z,45.53
2019-02-04T21:11:55.509Z,46.37
2019-02-04T21:14:27.448Z,42.27
2019-02-04T21:16:56.056Z,40.03
2019-02-04T21:19:25.387Z,46.93
2019-02-04T21:21:54.790Z,40.80
2019-02-04T21:24:24.723Z,39.23
2019-02-04T21:26:54.896Z,42.87
2019-02-04T21:29:25.470Z,44.80
2019-02-04T21:31:55.212Z,46.47
2019-02-04T21:34:24.682Z,43.27
2019-02-04T21:36:54.104Z,44.83
2019-02-04T21:39:23.752Z,46.53
2019-02-04T21:41:53.175Z,44.10
2019-02-04T21:44:22.708Z,45.60
2019-02-04T21:46:52.145Z,47.10
2019-02-04T21:49:21.665Z,48.07
2019-02-04T21:51:51.161Z,48.47
2019-02-04T21:54:20.617Z,44.83
2019-02-04T21:56:49.930Z,51.63
2019-02-04T21:59:19.779Z,43.23
2019-02-04T22:01:52.008Z,44.03
2019-02-04T22:04:21.471Z,51.17
2019-02-04T22:06:50.918Z,43.77
2019-02-04T22:09:20.891Z,53.17
2019-02-04T22:11:50.762Z,53.63
2019-02-04T22:14:25.378Z,51.00
2019-02-04T22:16:56.984Z,48.87
2019-02-04T22:19:26.014Z,49.30
2019-02-04T22:21:55.527Z,51.60
2019-02-04T22:24:25.142Z,53.30
2019-02-04T22:26:54.557Z,52.80
2019-02-04T22:29:24.006Z,46.73
2019-02-04T22:31:56.031Z,49.17
2019-02-04T22:34:25.806Z,51.73
2019-02-04T22:36:58.010Z,51.40
2019-02-04T22:39:27.397Z,47.33
2019-02-04T22:41:56.869Z,49.77
2019-02-04T22:44:26.631Z,49.40
2019-02-04T22:46:56.012Z,48.60
2019-02-04T22:49:25.531Z,49.40
2019-02-04T22:51:55.031Z,48.53
2019-02-04T22:54:24.328Z,50.67
2019-02-04T22:56:53.842Z,49.10
2019-02-04T22:59:23.549Z,48.50
2019-02-04T23:01:55.663Z,51.87
2019-02-04T23:04:26.752Z,55.70
2019-02-04T23:06:58.206Z,54.97
2019-02-04T23:09:28.733Z,55.40
2019-02-04T23:11:58.285Z,51.60
2019-02-04T23:14:27.621Z,49.00
2019-02-04T23:16:58.439Z,52.67
2019-02-04T23:19:30.369Z,53.03
2019-02-04T23:22:05.397Z,51.97
2019-02-04T23:24:36.871Z,48.30
2019-02-04T23:27:06.208Z,55.43
2019-02-04T23:29:35.926Z,51.47
2019-02-04T23:32:05.453Z,54.37
2019-02-04T23:34:34.787Z,54.67
2019-02-04T23:37:04.302Z,48.57
2019-02-04T23:39:33.628Z,51.33
2019-02-04T23:42:05.526Z,52.77
2019-02-04T23:44:35.604Z,52.47
2019-02-04T23:47:05.143Z,56.53
2019-02-04T23:49:34.716Z,54.77
2019-02-04T23:52:09.899Z,47.97
2019-02-04T23:54:39.220Z,51.13
2019-02-04T23:57:11.490Z,51.57
2019-02-04T23:59:40.910Z,46.80
